createdAt,value
2019-05-05T08:32:04.440Z,14.03
2019-05-05T08:34:34.030Z,13.73
2019-05-05T08:37:04.330Z,14.07
2019-05-05T08:39:34.551Z,15.03
2019-05-05T08:42:04.444Z,16.67
2019-05-05T08:44:34.439Z,14.37
2019-05-05T08:47:04.579Z,14.20
2019-05-05T08:49:34.763Z,12.33
2019-05-05T08:52:04.370Z,15.37
2019-05-05T08:54:34.344Z,12.77
2019-05-05T08:57:04.335Z,16.07
2019-05-05T08:59:34.354Z,12.23
2019-05-05T09:02:04.549Z,12.80
2019-05-05T09:04:34.143Z,13.97
2019-05-05T09:07:06.602Z,13.93
2019-05-05T09:09:36.059Z,14.77
2019-05-05T09:12:05.976Z,13.23
2019-05-05T09:14:35.846Z,19.33
2019-05-05T09:17:05.323Z,17.93
2019-05-05T09:19:34.778Z,13.17
2019-05-05T09:22:06.781Z,13.23
2019-05-05T09:24:54.111Z,9.17
2019-05-05T09:27:34.452Z,15.03
2019-05-05T09:30:04.248Z,9.73
2019-05-05T09:32:34.452Z,10.97
2019-05-05T09:35:04.864Z,8.83
2019-05-05T09:37:34.261Z,10.27
2019-05-05T09:40:05.067Z,10.50
2019-05-05T09:42:34.323Z,10.37
2019-05-05T09:45:04.824Z,13.63
2019-05-05T09:47:34.510Z,10.20
2019-05-05T09:50:14.336Z,9.90
2019-05-05T09:52:46.308Z,8.40
2019-05-05T09:55:18.029Z,11.13
2019-05-05T09:57:47.407Z,10.73
2019-05-05T10:00:17.809Z,7.53
2019-05-05T10:02:49.970Z,10.23
2019-05-05T10:05:20.678Z,10.43
2019-05-05T10:07:50.150Z,7.90
2019-05-05T10:10:20.331Z,9.87
2019-05-05T10:12:52.268Z,9.90
2019-05-05T10:15:20.943Z,12.60
2019-05-05T10:17:50.259Z,8.67
2019-05-05T10:20:20.489Z,11.53
2019-05-05T10:22:49.927Z,9.00
2019-05-05T10:25:50.463Z,10.53
2019-05-05T10:28:19.766Z,8.97
2019-05-05T10:30:49.202Z,12.33
2019-05-05T10:33:18.610Z,12.20
2019-05-05T10:35:48.008Z,13.67
2019-05-05T10:38:17.322Z,16.50
2019-05-05T10:40:48.322Z,9.60
2019-05-05T10:43:17.825Z,9.87
2019-05-05T10:45:49.030Z,10.43
2019-05-05T10:48:18.290Z,14.43
2019-05-05T10:50:47.660Z,12.10
2019-05-05T10:53:16.940Z,15.10
2019-05-05T10:55:46.479Z,8.93
2019-05-05T10:58:15.983Z,11.57
2019-05-05T11:00:48.721Z,10.80
2019-05-05T11:03:18.166Z,11.87
2019-05-05T11:05:47.557Z,11.70
2019-05-05T11:08:17.548Z,12.17
2019-05-05T11:10:47.228Z,11.23
2019-05-05T11:13:17.679Z,15.40
2019-05-05T11:15:49.118Z,14.80
2019-05-05T11:18:19.766Z,11.57
2019-05-05T11:20:49.203Z,14.73
2019-05-05T11:23:18.635Z,12.53
2019-05-05T11:25:48.106Z,13.07
2019-05-05T11:28:17.522Z,12.10
2019-05-05T11:30:47.140Z,10.87
2019-05-05T11:33:50.665Z,10.30
2019-05-05T11:36:44.852Z,9.67
2019-05-05T11:39:14.915Z,11.10
2019-05-05T11:41:44.375Z,13.60
2019-05-05T11:44:15.189Z,14.57
2019-05-05T11:46:44.963Z,10.03
2019-05-05T11:49:14.625Z,11.93
2019-05-05T11:51:44.535Z,9.70
2019-05-05T11:54:17.110Z,10.93
2019-05-05T11:56:47.098Z,13.90
2019-05-05T11:59:16.442Z,7.87
2019-05-05T12:01:48.795Z,10.07
2019-05-05T12:04:18.248Z,9.10
2019-05-05T12:06:49.206Z,8.93
2019-05-05T12:09:27.569Z,17.23
2019-05-05T12:11:57.655Z,10.30
2019-05-05T12:14:28.742Z,10.93
2019-05-05T12:16:58.183Z,10.07
2019-05-05T12:19:27.656Z,7.27
2019-05-05T12:21:56.975Z,10.67
2019-05-05T12:24:30.662Z,9.43
2019-05-05T12:27:14.092Z,20.13
2019-05-05T12:29:56.959Z,8.80
2019-05-05T12:32:26.958Z,10.73
2019-05-05T12:34:57.026Z,8.40
2019-05-05T12:37:26.346Z,7.97
2019-05-05T12:39:56.414Z,8.67
2019-05-05T12:42:25.805Z,7.93
2019-05-05T12:45:00.423Z,8.67
2019-05-05T12:47:49.035Z,10.17
2019-05-05T12:50:19.873Z,12.80
2019-05-05T12:52:49.259Z,10.33
2019-05-05T12:55:19.694Z,12.37
2019-05-05T12:57:50.448Z,13.37
2019-05-05T13:00:43.493Z,11.07
2019-05-05T13:03:25.292Z,13.10
2019-05-05T13:06:04.067Z,16.47
2019-05-05T13:08:36.828Z,16.17
2019-05-05T13:11:06.436Z,8.70
2019-05-05T13:13:38.270Z,11.57
2019-05-05T13:16:13.642Z,14.37
2019-05-05T13:18:42.885Z,8.07
2019-05-05T13:21:23.940Z,9.33
2019-05-05T13:24:17.763Z,9.53
2019-05-05T13:26:54.077Z,8.30
2019-05-05T13:29:27.693Z,8.47
2019-05-05T13:32:00.134Z,8.90
2019-05-05T13:34:29.671Z,8.07
2019-05-05T13:37:04.235Z,7.23
2019-05-05T13:39:37.923Z,12.07
2019-05-05T13:42:07.300Z,8.17
2019-05-05T13:44:57.285Z,9.83
2019-05-05T13:47:29.386Z,8.63
2019-05-05T13:50:07.946Z,9.13
2019-05-05T13:52:44.254Z,7.80
2019-05-05T13:55:17.121Z,9.17
2019-05-05T13:57:47.279Z,8.67
2019-05-05T14:00:18.473Z,9.40
2019-05-05T14:02:58.838Z,7.70
2019-05-05T14:05:48.265Z,9.77
2019-05-05T14:08:18.401Z,10.40
2019-05-05T14:10:47.837Z,11.20
2019-05-05T14:13:17.137Z,6.97
2019-05-05T14:15:46.545Z,9.70
2019-05-05T14:18:15.984Z,12.03
2019-05-05T14:20:45.642Z,12.43
2019-05-05T14:23:15.178Z,12.17
2019-05-05T14:25:44.546Z,10.40
2019-05-05T14:28:14.374Z,9.97
2019-05-05T14:31:02.690Z,10.40
2019-05-05T14:33:48.673Z,7.93
2019-05-05T14:36:28.961Z,12.00
2019-05-05T14:38:58.916Z,8.93
2019-05-05T14:41:28.405Z,7.73
2019-05-05T14:43:58.187Z,5.30
2019-05-05T14:46:28.549Z,8.60
2019-05-05T14:48:59.423Z,8.67
2019-05-05T14:51:28.715Z,9.33
2019-05-05T14:53:58.041Z,8.83
2019-05-05T14:56:36.248Z,12.23
2019-05-05T14:59:01.092Z,9.80
2019-05-05T15:01:30.485Z,9.33
2019-05-05T15:03:59.786Z,9.67
2019-05-05T15:06:48.198Z,10.00
2019-05-05T15:09:24.653Z,11.17
2019-05-05T15:12:03.923Z,7.80
2019-05-05T15:14:34.703Z,11.33
2019-05-05T15:17:04.672Z,40.00
2019-05-05T15:19:34.228Z,12.73
2019-05-05T15:22:04.964Z,12.57
2019-05-05T15:24:34.292Z,9.27
2019-05-05T15:27:03.553Z,14.40
2019-05-05T15:29:34.452Z,8.60
2019-05-05T15:32:04.368Z,10.27
2019-05-05T15:34:34.355Z,11.00
2019-05-05T15:37:04.040Z,9.60
2019-05-05T15:39:33.695Z,6.80
2019-05-05T15:42:04.662Z,8.67
2019-05-05T15:44:34.603Z,9.10
2019-05-05T15:47:04.148Z,10.37
2019-05-05T15:49:33.551Z,10.83
2019-05-05T15:52:05.044Z,8.90
2019-05-05T15:54:35.624Z,11.67
2019-05-05T15:57:08.538Z,10.33
2019-05-05T15:59:35.930Z,12.83
2019-05-05T16:02:05.209Z,11.60
2019-05-05T16:04:35.692Z,14.17
2019-05-05T16:07:05.080Z,12.43
2019-05-05T16:09:34.495Z,11.17
2019-05-05T16:12:03.875Z,7.83
2019-05-05T16:14:37.507Z,9.53
2019-05-05T16:17:19.450Z,8.83
2019-05-05T16:19:57.870Z,8.37
2019-05-05T16:22:48.642Z,7.13
2019-05-05T16:25:20.544Z,6.90
2019-05-05T16:27:49.885Z,7.33
2019-05-05T16:30:19.960Z,7.03
2019-05-05T16:32:49.335Z,8.80
2019-05-05T16:35:20.138Z,11.00
2019-05-05T16:37:49.545Z,8.87
2019-05-05T16:40:23.238Z,10.73
2019-05-05T16:42:54.340Z,6.17
2019-05-05T16:45:24.704Z,9.67
2019-05-05T16:47:54.600Z,6.10
2019-05-05T16:50:25.096Z,8.50
2019-05-05T16:53:06.786Z,7.00
2019-05-05T16:55:40.913Z,9.93
2019-05-05T16:58:13.938Z,8.00
2019-05-05T17:00:49.686Z,9.13
2019-05-05T17:03:25.089Z,7.70
2019-05-05T17:05:58.253Z,12.50
2019-05-05T17:08:30.018Z,9.37
2019-05-05T17:11:02.039Z,8.23
2019-05-05T17:13:41.610Z,6.80
2019-05-05T17:16:35.046Z,8.23
2019-05-05T17:19:14.013Z,11.60
2019-05-05T17:22:03.923Z,5.87
2019-05-05T17:24:34.508Z,9.33
2019-05-05T17:27:06.027Z,7.33
2019-05-05T17:29:40.034Z,6.57
2019-05-05T17:32:13.926Z,5.60
2019-05-05T17:34:48.259Z,7.70
2019-05-05T17:37:18.854Z,6.53
2019-05-05T17:40:06.567Z,6.80
2019-05-05T17:43:24.306Z,7.47
2019-05-05T17:45:59.476Z,8.47
2019-05-05T17:48:44.185Z,7.03
2019-05-05T17:51:31.219Z,7.50
2019-05-05T17:54:18.590Z,6.20
2019-05-05T17:56:52.379Z,5.77
2019-05-05T17:59:33.767Z,15.60
2019-05-05T18:05:46.266Z,8.00
2019-05-05T18:08:33.784Z,5.10
2019-05-05T18:11:10.176Z,5.83
2019-05-05T18:14:01.346Z,9.97
2019-05-05T18:16:44.643Z,6.67
2019-05-05T18:19:19.809Z,6.73
2019-05-05T18:21:54.729Z,6.67
2019-05-05T18:24:33.691Z,5.70
2019-05-05T18:27:09.549Z,4.27
2019-05-05T18:29:39.301Z,7.37
2019-05-05T18:32:13.845Z,4.47
2019-05-05T18:34:45.229Z,8.20
2019-05-05T18:37:17.926Z,4.90
2019-05-05T18:40:04.119Z,5.27
2019-05-05T18:42:36.921Z,10.30
2019-05-05T18:45:11.430Z,5.17
2019-05-05T18:47:43.382Z,4.73
2019-05-05T18:50:31.266Z,5.27
2019-05-05T18:53:01.906Z,5.50
2019-05-05T18:55:33.927Z,5.97
2019-05-05T18:58:10.841Z,5.37
2019-05-05T19:01:13.608Z,4.00
2019-05-05T19:04:35.918Z,4.10
2019-05-05T19:07:16.014Z,5.07
2019-05-05T19:09:53.860Z,6.10
2019-05-05T19:12:19.593Z,7.07
2019-05-05T19:14:55.049Z,6.87
2019-05-05T19:17:28.847Z,4.03
2019-05-05T19:20:04.246Z,4.90
2019-05-05T19:22:36.135Z,4.37
2019-05-05T19:25:17.739Z,4.13
2019-05-05T19:27:48.458Z,5.30
2019-05-05T19:30:25.541Z,6.10
2019-05-05T19:32:56.930Z,6.50
2019-05-05T19:35:43.572Z,4.83
2019-05-05T19:38:08.065Z,6.33
2019-05-05T19:40:39.607Z,4.77
2019-05-05T19:43:10.071Z,4.87
2019-05-05T19:45:41.355Z,6.73
2019-05-05T19:48:11.075Z,7.27
2019-05-05T19:50:54.199Z,6.10
2019-05-05T19:53:26.146Z,6.60
2019-05-05T19:56:01.205Z,5.40
2019-05-05T19:58:34.062Z,11.70
2019-05-05T20:01:08.382Z,12.77
2019-05-05T20:03:40.842Z,5.37
2019-05-05T20:06:14.193Z,6.23
2019-05-05T20:08:45.030Z,6.30
2019-05-05T20:11:15.887Z,4.90
2019-05-05T20:13:46.307Z,4.67
2019-05-05T20:16:54.691Z,4.53
2019-05-05T20:19:25.169Z,6.27
2019-05-05T20:21:59.686Z,4.87
2019-05-05T20:24:33.728Z,4.70
2019-05-05T20:27:06.884Z,4.27
2019-05-05T20:29:40.492Z,5.57
2019-05-05T20:32:13.875Z,3.20
2019-05-05T20:35:17.485Z,3.47
2019-05-05T20:37:54.234Z,4.53
2019-05-05T20:40:27.234Z,3.43
2019-05-05T20:42:58.350Z,5.70
2019-05-05T20:45:34.668Z,4.40
2019-05-05T20:48:05.484Z,8.37
2019-05-05T20:50:38.300Z,3.87
2019-05-05T20:53:30.591Z,4.73
2019-05-05T20:56:04.305Z,3.93
2019-05-05T20:58:35.265Z,3.80
2019-05-05T21:01:06.332Z,3.50
2019-05-05T21:03:37.177Z,4.83
2019-05-05T21:06:09.176Z,5.20
2019-05-05T21:08:48.153Z,5.30
2019-05-05T21:11:19.497Z,3.93
2019-05-05T21:13:54.343Z,7.97
2019-05-05T21:16:27.611Z,4.40
2019-05-05T21:19:04.456Z,3.87
2019-05-05T21:21:37.295Z,3.43
2019-05-05T21:24:10.000Z,5.60
2019-05-05T21:26:58.643Z,4.20
2019-05-05T21:29:39.678Z,3.67
2019-05-05T21:32:04.650Z,3.70
2019-05-05T21:34:36.855Z,3.60
2019-05-05T21:37:06.886Z,2.57
2019-05-05T21:39:37.117Z,3.17
2019-05-05T21:42:08.843Z,6.70
2019-05-05T21:44:39.818Z,4.37
2019-05-05T21:47:11.322Z,4.23
2019-05-05T21:49:42.649Z,4.30
2019-05-05T21:52:36.674Z,4.60
2019-05-05T21:55:17.942Z,3.50
2019-05-05T21:58:23.301Z,4.23
2019-05-05T22:01:04.460Z,4.90
2019-05-05T22:03:40.567Z,5.20
2019-05-05T22:06:14.417Z,3.37
2019-05-05T22:08:45.144Z,4.77
2019-05-05T22:11:15.659Z,4.07
2019-05-05T22:13:46.436Z,4.67
2019-05-05T22:16:17.400Z,3.70
2019-05-05T22:18:48.910Z,4.77
2019-05-05T22:21:44.192Z,3.20
2019-05-05T22:24:22.798Z,3.33
2019-05-05T22:26:54.373Z,3.43
2019-05-05T22:29:25.646Z,5.07
2019-05-05T22:31:57.164Z,3.30
2019-05-05T22:34:29.229Z,3.83
2019-05-05T22:37:07.618Z,4.57
2019-05-05T22:39:38.159Z,3.93
2019-05-05T22:42:09.066Z,3.97
2019-05-05T22:44:40.082Z,5.03
2019-05-05T22:47:11.503Z,6.47
2019-05-05T22:49:44.194Z,4.17
2019-05-05T22:52:15.263Z,4.40
2019-05-05T22:54:47.076Z,18.00
2019-05-05T22:57:21.336Z,4.83
2019-05-05T22:59:54.084Z,6.40
2019-05-05T23:02:27.654Z,4.17
2019-05-05T23:05:14.712Z,6.63
2019-05-05T23:07:47.133Z,3.03
2019-05-05T23:10:19.883Z,4.80
2019-05-05T23:12:54.329Z,3.83
2019-05-05T23:15:25.562Z,8.13
2019-05-05T23:18:10.827Z,3.47
2019-05-05T23:21:15.637Z,4.50
2019-05-05T23:24:03.695Z,3.17
2019-05-05T23:26:38.461Z,3.47
2019-05-05T23:29:14.680Z,6.93
2019-05-05T23:31:48.399Z,4.27
2019-05-05T23:34:20.639Z,4.27
2019-05-05T23:36:53.452Z,3.50
2019-05-05T23:39:27.743Z,3.57
2019-05-05T23:41:57.603Z,5.90
2019-05-05T23:44:31.421Z,3.67
2019-05-05T23:49:56.203Z,6.53
2019-05-05T23:52:27.242Z,5.63
2019-05-05T23:54:57.298Z,5.27
2019-05-05T23:57:29.088Z,3.70
2019-05-05T23:59:58.686Z,5.03
